createdAt,value
2023-05-13T00:01:21.298Z,13.60
2023-05-13T00:03:48.610Z,13.60
2023-05-13T00:06:17.418Z,13.60
2023-05-13T00:08:44.956Z,13.60
2023-05-13T00:11:12.227Z,13.60
2023-05-13T00:13:39.458Z,13.60
2023-05-13T00:16:07.348Z,13.60
2023-05-13T00:18:34.865Z,13.50
2023-05-13T00:21:02.339Z,13.50
2023-05-13T00:23:29.944Z,13.50
2023-05-13T00:25:57.347Z,13.50
2023-05-13T00:28:24.727Z,13.50
2023-05-13T00:30:52.243Z,13.50
2023-05-13T00:33:19.690Z,13.50
2023-05-13T00:35:47.160Z,13.40
2023-05-13T00:38:14.618Z,13.40
2023-05-13T00:40:43.204Z,13.40
2023-05-13T00:43:11.043Z,13.40
2023-05-13T00:45:39.376Z,13.40
2023-05-13T00:48:08.384Z,13.30
2023-05-13T00:50:35.896Z,13.30
2023-05-13T00:53:04.779Z,13.30
2023-05-13T00:55:32.394Z,13.30
2023-05-13T00:58:00.000Z,13.30
2023-05-13T01:00:30.345Z,13.30
2023-05-13T01:03:10.584Z,13.30
2023-05-13T01:05:59.155Z,13.30
2023-05-13T01:08:51.228Z,13.30
2023-05-13T01:11:24.640Z,13.30
2023-05-13T01:14:03.719Z,13.30
2023-05-13T01:16:39.543Z,13.30
2023-05-13T01:19:21.162Z,13.20
2023-05-13T01:21:55.215Z,13.30
2023-05-13T01:24:23.322Z,13.20
2023-05-13T01:26:51.419Z,13.20
2023-05-13T01:29:18.794Z,13.20
2023-05-13T01:31:47.388Z,13.20
2023-05-13T01:34:16.082Z,13.20
2023-05-13T01:36:44.123Z,13.20
2023-05-13T01:39:13.445Z,13.20
2023-05-13T01:41:41.807Z,13.20
2023-05-13T01:44:09.317Z,13.20
2023-05-13T01:46:39.319Z,13.20
2023-05-13T01:49:07.808Z,13.20
2023-05-13T01:51:36.695Z,13.20
2023-05-13T01:54:05.085Z,13.20
2023-05-13T01:56:34.777Z,13.20
2023-05-13T01:59:03.756Z,13.20
2023-05-13T02:01:31.170Z,13.20
2023-05-13T02:04:00.014Z,13.20
2023-05-13T02:06:28.589Z,13.20
2023-05-13T02:08:59.288Z,13.30
2023-05-13T02:11:27.104Z,13.30
2023-05-13T02:13:57.568Z,13.20
2023-05-13T02:16:24.966Z,13.20
2023-05-13T02:18:52.968Z,13.20
2023-05-13T02:21:27.635Z,13.20
2023-05-13T02:23:55.071Z,13.20
2023-05-13T02:26:22.487Z,13.20
2023-05-13T02:28:50.221Z,13.20
2023-05-13T02:31:17.582Z,13.20
2023-05-13T02:33:45.013Z,13.10
2023-05-13T02:36:12.335Z,13.10
2023-05-13T02:38:39.874Z,13.10
2023-05-13T02:41:09.119Z,13.10
2023-05-13T02:43:36.938Z,13.10
2023-05-13T02:46:06.783Z,13.10
2023-05-13T02:48:34.923Z,13.20
2023-05-13T02:51:02.574Z,13.20
2023-05-13T02:53:30.192Z,13.20
2023-05-13T02:56:02.280Z,13.20
2023-05-13T02:58:29.610Z,13.20
2023-05-13T03:00:57.205Z,13.20
2023-05-13T03:03:26.323Z,13.20
2023-05-13T03:05:53.760Z,13.20
2023-05-13T03:08:21.173Z,13.20
2023-05-13T03:10:48.595Z,13.20
2023-05-13T03:13:16.105Z,13.30
2023-05-13T03:15:44.627Z,13.30
2023-05-13T03:18:12.641Z,13.30
2023-05-13T03:20:41.030Z,13.30
2023-05-13T03:23:08.746Z,13.30
2023-05-13T03:25:36.468Z,13.30
2023-05-13T03:28:04.525Z,13.30
2023-05-13T03:30:36.696Z,13.30
2023-05-13T03:33:12.044Z,13.30
2023-05-13T03:35:40.827Z,13.30
2023-05-13T03:38:08.970Z,13.20
2023-05-13T03:40:40.416Z,13.30
2023-05-13T03:43:08.529Z,13.30
2023-05-13T03:45:37.583Z,13.30
2023-05-13T03:48:09.041Z,13.30
2023-05-13T03:50:36.379Z,13.30
2023-05-13T03:53:04.933Z,13.30
2023-05-13T03:55:33.709Z,13.20
2023-05-13T03:58:21.966Z,13.30
2023-05-13T04:00:49.530Z,13.30
2023-05-13T04:03:18.813Z,13.30
2023-05-13T04:05:47.320Z,13.40
2023-05-13T04:08:15.613Z,13.40
2023-05-13T04:10:44.033Z,13.40
2023-05-13T04:13:12.061Z,13.40
2023-05-13T04:15:40.362Z,13.40
2023-05-13T04:18:07.938Z,13.40
2023-05-13T04:20:38.180Z,13.40
2023-05-13T04:23:06.304Z,13.40
2023-05-13T04:25:37.355Z,13.50
2023-05-13T04:28:05.575Z,13.50
2023-05-13T04:30:36.724Z,13.50
2023-05-13T04:33:04.665Z,13.50
2023-05-13T04:35:33.418Z,13.50
2023-05-13T04:38:02.603Z,13.50
2023-05-13T04:40:30.831Z,13.50
2023-05-13T04:43:02.828Z,13.60
2023-05-13T04:45:35.763Z,13.60
2023-05-13T04:48:03.948Z,13.60
2023-05-13T04:50:31.988Z,13.70
2023-05-13T04:53:00.680Z,13.80
2023-05-13T04:55:28.385Z,13.80
2023-05-13T04:57:57.085Z,13.90
2023-05-13T05:00:24.794Z,13.90
2023-05-13T05:02:52.936Z,13.90
2023-05-13T05:05:22.486Z,14.00
2023-05-13T05:07:50.055Z,14.00
2023-05-13T05:10:19.135Z,14.10
2023-05-13T05:13:07.061Z,14.10
2023-05-13T05:15:36.240Z,14.10
2023-05-13T05:18:06.647Z,14.10
2023-05-13T05:20:38.037Z,14.10
2023-05-13T05:23:10.484Z,14.20
2023-05-13T05:25:39.947Z,14.20
2023-05-13T05:28:09.511Z,14.20
2023-05-13T05:30:42.572Z,14.30
2023-05-13T05:33:20.129Z,14.40
2023-05-13T05:35:49.802Z,14.50
2023-05-13T05:38:19.080Z,14.60
2023-05-13T05:40:47.712Z,14.60
2023-05-13T05:43:16.669Z,14.70
2023-05-13T05:45:45.750Z,14.80
2023-05-13T05:48:18.309Z,14.80
2023-05-13T05:50:46.015Z,14.80
2023-05-13T05:53:18.131Z,14.90
2023-05-13T05:55:47.572Z,14.90
2023-05-13T05:58:17.386Z,15.00
2023-05-13T06:00:47.204Z,15.10
2023-05-13T06:03:15.746Z,15.20
2023-05-13T06:05:44.926Z,15.20
2023-05-13T06:08:13.292Z,15.20
2023-05-13T06:10:41.326Z,15.30
2023-05-13T06:13:09.323Z,15.40
2023-05-13T06:15:38.664Z,15.50
2023-05-13T06:18:06.492Z,15.70
2023-05-13T06:20:35.598Z,15.80
2023-05-13T06:23:03.335Z,15.90
2023-05-13T06:25:31.791Z,16.00
2023-05-13T06:28:00.845Z,16.00
2023-05-13T06:30:30.230Z,16.00
2023-05-13T06:33:02.083Z,16.00
2023-05-13T06:35:31.397Z,16.00
2023-05-13T06:37:59.693Z,15.90
2023-05-13T06:40:27.493Z,15.80
2023-05-13T06:42:55.940Z,15.80
2023-05-13T06:45:29.772Z,15.80
2023-05-13T06:47:57.717Z,15.80
2023-05-13T06:50:25.207Z,15.90
2023-05-13T06:52:52.872Z,16.10
2023-05-13T06:55:20.451Z,16.20
2023-05-13T06:57:47.751Z,16.30
2023-05-13T07:00:15.852Z,16.30
2023-05-13T07:02:43.417Z,16.20
2023-05-13T07:05:12.312Z,16.20
2023-05-13T07:07:39.653Z,16.20
2023-05-13T07:10:07.312Z,16.10
2023-05-13T07:12:34.651Z,16.10
2023-05-13T07:15:02.503Z,16.20
2023-05-13T07:17:31.616Z,16.40
2023-05-13T07:19:59.238Z,16.50
2023-05-13T07:22:27.897Z,16.80
2023-05-13T07:24:55.992Z,17.00
2023-05-13T07:27:23.308Z,17.20
2023-05-13T07:29:50.680Z,17.50
2023-05-13T07:32:18.294Z,17.70
2023-05-13T07:34:45.759Z,17.90
2023-05-13T07:37:13.122Z,18.20
2023-05-13T07:39:40.606Z,18.30
2023-05-13T07:42:08.011Z,18.40
2023-05-13T07:44:35.278Z,18.40
2023-05-13T07:47:02.743Z,18.40
2023-05-13T07:49:30.143Z,18.50
2023-05-13T07:51:57.718Z,18.60
2023-05-13T07:54:24.992Z,18.60
2023-05-13T07:56:52.304Z,18.50
2023-05-13T07:59:19.711Z,18.40
2023-05-13T08:01:47.348Z,18.10
2023-05-13T08:04:15.066Z,18.00
2023-05-13T08:06:42.673Z,18.00
2023-05-13T08:09:12.613Z,17.80
2023-05-13T08:11:45.257Z,17.60
2023-05-13T08:14:12.829Z,17.40
2023-05-13T08:16:41.100Z,17.10
2023-05-13T08:19:09.364Z,16.80
2023-05-13T08:21:36.666Z,16.50
2023-05-13T08:24:04.016Z,16.20
2023-05-13T08:26:31.315Z,16.00
2023-05-13T08:28:58.744Z,15.80
2023-05-13T08:31:26.709Z,15.70
2023-05-13T08:33:55.437Z,15.70
2023-05-13T08:36:23.465Z,15.70
2023-05-13T08:38:50.882Z,15.80
2023-05-13T08:41:20.460Z,15.90
2023-05-13T08:43:52.203Z,16.10
2023-05-13T08:46:20.264Z,16.30
2023-05-13T08:48:48.383Z,16.40
2023-05-13T08:51:15.978Z,16.50
2023-05-13T08:53:45.326Z,16.50
2023-05-13T08:56:13.153Z,16.60
2023-05-13T08:58:41.717Z,16.80
2023-05-13T09:01:09.604Z,17.00
2023-05-13T09:03:47.599Z,17.20
2023-05-13T09:06:15.246Z,17.40
2023-05-13T09:08:42.815Z,17.60
2023-05-13T09:11:10.469Z,17.60
2023-05-13T09:13:37.772Z,17.50
2023-05-13T09:16:07.318Z,17.50
2023-05-13T09:18:35.038Z,17.60
2023-05-13T09:21:30.861Z,17.90
2023-05-13T09:24:19.110Z,18.00
2023-05-13T09:26:47.200Z,18.10
2023-05-13T09:29:22.429Z,18.20
2023-05-13T09:31:55.792Z,18.30
2023-05-13T09:34:35.053Z,18.40
2023-05-13T09:37:08.864Z,18.40
2023-05-13T09:39:44.188Z,18.20
2023-05-13T09:42:16.750Z,17.90
2023-05-13T09:44:48.863Z,17.50
2023-05-13T09:47:17.114Z,17.30
2023-05-13T09:49:45.836Z,17.00
2023-05-13T09:52:16.877Z,16.80
2023-05-13T09:54:44.578Z,16.70
2023-05-13T09:57:13.500Z,16.60
2023-05-13T09:59:41.320Z,16.60
2023-05-13T10:02:11.173Z,16.50
2023-05-13T10:04:39.405Z,16.50
2023-05-13T10:07:07.743Z,16.50
2023-05-13T10:09:36.570Z,16.50
2023-05-13T10:12:06.808Z,16.50
2023-05-13T10:14:36.919Z,16.50
2023-05-13T10:19:34.875Z,16.40
2023-05-13T10:22:04.051Z,16.50
2023-05-13T10:24:32.616Z,16.40
2023-05-13T10:27:02.279Z,16.40
2023-05-13T10:29:30.200Z,16.40
2023-05-13T10:31:58.627Z,16.40
2023-05-13T10:34:28.320Z,16.40
2023-05-13T10:37:14.168Z,16.40
2023-05-13T10:39:57.420Z,16.40
2023-05-13T10:42:43.754Z,16.40
2023-05-13T10:45:12.502Z,16.40
2023-05-13T10:47:40.123Z,16.60
2023-05-13T10:50:27.199Z,16.80
2023-05-13T10:52:58.871Z,17.00
2023-05-13T10:55:29.176Z,17.10
2023-05-13T10:58:12.115Z,17.00
2023-05-13T11:00:42.017Z,17.00
2023-05-13T11:03:15.342Z,16.90
2023-05-13T11:05:58.099Z,16.90
2023-05-13T11:08:38.915Z,16.80
2023-05-13T11:11:29.603Z,16.80
2023-05-13T11:13:59.626Z,17.00
2023-05-13T11:16:27.175Z,17.40
2023-05-13T11:18:54.754Z,17.80
2023-05-13T11:21:36.329Z,18.00
2023-05-13T11:24:05.658Z,18.00
2023-05-13T11:26:48.730Z,17.80
2023-05-13T11:29:34.686Z,17.60
2023-05-13T11:32:04.466Z,17.40
2023-05-13T11:34:32.996Z,17.30
2023-05-13T11:37:03.415Z,17.20
2023-05-13T11:39:31.556Z,17.10
2023-05-13T11:42:01.843Z,17.00
2023-05-13T11:44:31.050Z,17.10
2023-05-13T11:47:00.559Z,17.40
2023-05-13T11:49:44.124Z,17.80
2023-05-13T11:52:12.423Z,18.30
2023-05-13T11:54:54.171Z,18.70
2023-05-13T11:57:26.527Z,18.80
2023-05-13T12:00:06.639Z,18.60
2023-05-13T12:02:38.086Z,18.20
2023-05-13T12:05:08.077Z,18.00
2023-05-13T12:07:37.437Z,17.90
2023-05-13T12:10:06.420Z,17.90
2023-05-13T12:12:36.543Z,17.90
2023-05-13T12:15:06.996Z,18.10
2023-05-13T12:17:35.024Z,18.50
2023-05-13T12:20:14.199Z,18.80
2023-05-13T12:22:44.747Z,19.30
2023-05-13T12:25:45.352Z,19.50
2023-05-13T12:28:20.079Z,19.40
2023-05-13T12:31:00.338Z,19.20
2023-05-13T12:33:30.850Z,19.10
2023-05-13T12:36:20.331Z,19.10
2023-05-13T12:39:02.011Z,19.00
2023-05-13T12:41:31.818Z,18.90
2023-05-13T12:44:01.414Z,18.90
2023-05-13T12:46:29.787Z,18.80
2023-05-13T12:48:59.136Z,18.60
2023-05-13T12:51:27.082Z,18.50
2023-05-13T12:53:54.853Z,18.30
2023-05-13T12:56:23.500Z,18.00
2023-05-13T12:58:52.624Z,17.80
2023-05-13T13:01:20.516Z,17.60
2023-05-13T13:03:48.368Z,17.50
2023-05-13T13:06:16.195Z,17.40
2023-05-13T13:08:43.567Z,17.30
2023-05-13T13:11:14.749Z,17.20
2023-05-13T13:13:42.000Z,17.20
2023-05-13T13:16:09.503Z,17.20
2023-05-13T13:18:37.051Z,17.20
2023-05-13T13:21:05.744Z,17.20
2023-05-13T13:23:33.864Z,17.20
2023-05-13T13:26:01.200Z,17.20
2023-05-13T13:28:28.740Z,17.30
2023-05-13T13:30:56.219Z,17.30
2023-05-13T13:33:23.565Z,17.30
2023-05-13T13:35:51.054Z,17.40
2023-05-13T13:38:18.330Z,17.50
2023-05-13T13:40:45.655Z,17.50
2023-05-13T13:43:13.062Z,17.50
2023-05-13T13:45:40.549Z,17.50
2023-05-13T13:48:07.893Z,17.50
2023-05-13T13:50:35.299Z,17.50
2023-05-13T13:53:02.771Z,17.60
2023-05-13T13:55:30.172Z,17.60
2023-05-13T13:57:57.497Z,17.70
2023-05-13T14:00:24.979Z,17.70
2023-05-13T14:02:52.446Z,17.70
2023-05-13T14:05:20.019Z,17.60
2023-05-13T14:07:49.399Z,17.50
2023-05-13T14:10:16.923Z,17.40
2023-05-13T14:12:44.291Z,17.30
2023-05-13T14:15:11.816Z,17.30
2023-05-13T14:17:39.208Z,17.20
2023-05-13T14:20:07.351Z,17.10
2023-05-13T14:22:34.689Z,17.00
2023-05-13T14:25:02.046Z,17.00
2023-05-13T14:27:29.360Z,17.00
2023-05-13T14:29:56.603Z,17.00
2023-05-13T14:32:23.929Z,17.00
2023-05-13T14:34:51.450Z,17.00
2023-05-13T14:37:18.923Z,17.00
2023-05-13T14:39:48.375Z,16.90
2023-05-13T14:42:18.109Z,17.00
2023-05-13T14:44:45.611Z,17.10
2023-05-13T14:47:13.120Z,17.20
2023-05-13T14:49:40.397Z,17.20
2023-05-13T14:52:07.847Z,17.20
2023-05-13T14:54:37.016Z,17.30
2023-05-13T14:57:06.194Z,17.30
2023-05-13T14:59:34.107Z,17.20
2023-05-13T15:02:02.952Z,17.10
2023-05-13T15:04:30.554Z,17.00
2023-05-13T15:06:58.401Z,17.00
2023-05-13T15:09:25.851Z,16.90
2023-05-13T15:11:53.140Z,16.90
2023-05-13T15:14:25.556Z,16.90
2023-05-13T15:16:53.119Z,16.80
2023-05-13T15:19:20.748Z,16.80
2023-05-13T15:21:48.091Z,16.80
2023-05-13T15:24:15.538Z,16.80
2023-05-13T15:26:43.304Z,16.80
2023-05-13T15:29:10.658Z,16.80
2023-05-13T15:31:37.934Z,16.90
2023-05-13T15:34:05.237Z,17.00
2023-05-13T15:36:35.520Z,17.20
2023-05-13T15:39:02.875Z,17.20
2023-05-13T15:41:30.287Z,17.20
2023-05-13T15:43:57.882Z,17.20
2023-05-13T15:46:25.767Z,17.10
2023-05-13T15:48:53.472Z,17.10
2023-05-13T15:51:21.166Z,17.10
2023-05-13T15:53:48.536Z,17.10
2023-05-13T15:56:15.840Z,17.10
2023-05-13T15:58:43.144Z,17.10
2023-05-13T16:01:10.442Z,17.20
2023-05-13T16:03:38.700Z,17.10
2023-05-13T16:06:06.295Z,17.10
2023-05-13T16:08:33.621Z,17.10
2023-05-13T16:11:01.146Z,17.10
2023-05-13T16:13:28.397Z,17.10
2023-05-13T16:15:56.145Z,17.00
2023-05-13T16:18:24.033Z,16.90
2023-05-13T16:20:52.352Z,16.90
2023-05-13T16:23:19.835Z,16.80
2023-05-13T16:25:47.328Z,16.80
2023-05-13T16:28:15.655Z,16.80
2023-05-13T16:30:44.282Z,16.70
2023-05-13T16:33:11.826Z,16.70
2023-05-13T16:35:39.174Z,16.70
2023-05-13T16:38:06.444Z,16.60
2023-05-13T16:40:33.815Z,16.60
2023-05-13T16:43:03.658Z,16.60
2023-05-13T16:45:31.776Z,16.60
2023-05-13T16:47:59.257Z,16.50
2023-05-13T16:50:27.040Z,16.40
2023-05-13T16:52:54.556Z,16.50
2023-05-13T16:55:22.545Z,16.40
2023-05-13T16:57:49.966Z,16.40
2023-05-13T17:00:17.552Z,16.30
2023-05-13T17:02:44.952Z,16.30
2023-05-13T17:05:12.357Z,16.30
2023-05-13T17:07:39.704Z,16.20
2023-05-13T17:10:07.500Z,16.20
2023-05-13T17:12:35.355Z,16.20
2023-05-13T17:15:04.061Z,16.10
2023-05-13T17:17:31.355Z,16.10
2023-05-13T17:19:58.785Z,16.00
2023-05-13T17:22:26.054Z,16.00
2023-05-13T17:24:53.409Z,15.90
2023-05-13T17:27:21.553Z,15.90
2023-05-13T17:29:49.073Z,15.80
2023-05-13T17:32:16.720Z,15.80
2023-05-13T17:34:43.983Z,15.80
2023-05-13T17:37:11.407Z,15.70
2023-05-13T17:39:38.718Z,15.70
2023-05-13T17:42:06.066Z,15.70
2023-05-13T17:44:33.515Z,15.70
2023-05-13T17:47:01.772Z,15.60
2023-05-13T17:49:29.094Z,15.50
2023-05-13T17:51:56.534Z,15.50
2023-05-13T17:54:23.813Z,15.40
2023-05-13T17:56:51.261Z,15.40
2023-05-13T17:59:18.576Z,15.40
2023-05-13T18:01:48.769Z,15.40
2023-05-13T18:04:16.267Z,15.40
2023-05-13T18:06:43.525Z,15.30
2023-05-13T18:09:11.543Z,15.30
2023-05-13T18:11:39.075Z,15.30
2023-05-13T18:14:07.046Z,15.30
2023-05-13T18:16:34.681Z,15.30
2023-05-13T18:19:02.082Z,15.30
2023-05-13T18:21:31.783Z,15.30
2023-05-13T18:23:59.162Z,15.30
2023-05-13T18:26:26.688Z,15.30
2023-05-13T18:28:54.130Z,15.30
2023-05-13T18:31:21.596Z,15.30
2023-05-13T18:33:49.086Z,15.30
2023-05-13T18:36:16.895Z,15.30
2023-05-13T18:38:45.901Z,15.30
2023-05-13T18:41:13.254Z,15.30
2023-05-13T18:43:40.577Z,15.30
2023-05-13T18:46:08.718Z,15.20
2023-05-13T18:48:36.477Z,15.20
2023-05-13T18:51:03.930Z,15.20
2023-05-13T18:53:31.489Z,15.20
2023-05-13T18:55:59.050Z,15.20
2023-05-13T18:58:26.822Z,15.20
2023-05-13T19:00:54.255Z,15.20
2023-05-13T19:03:21.850Z,15.30
2023-05-13T19:05:49.330Z,15.30
2023-05-13T19:08:16.736Z,15.30
2023-05-13T19:10:44.047Z,15.30
2023-05-13T19:13:11.365Z,15.30
2023-05-13T19:15:38.773Z,15.30
2023-05-13T19:18:06.319Z,15.30
2023-05-13T19:20:33.645Z,15.40
2023-05-13T19:23:00.957Z,15.40
2023-05-13T19:25:28.413Z,15.40
2023-05-13T19:27:59.512Z,15.40
2023-05-13T19:30:26.952Z,15.40
2023-05-13T19:32:54.490Z,15.30
2023-05-13T19:35:23.428Z,15.30
2023-05-13T19:37:50.701Z,15.30
2023-05-13T19:40:18.321Z,15.30
2023-05-13T19:42:45.950Z,15.40
2023-05-13T19:45:13.406Z,15.40
2023-05-13T19:47:40.691Z,15.30
2023-05-13T19:50:08.471Z,15.40
2023-05-13T19:52:36.038Z,15.40
2023-05-13T19:55:04.409Z,15.30
2023-05-13T19:57:31.712Z,15.30
2023-05-13T19:59:59.461Z,15.30
2023-05-13T20:02:27.110Z,15.30
2023-05-13T20:04:54.435Z,15.30
2023-05-13T20:07:21.690Z,15.30
2023-05-13T20:09:49.033Z,15.30
2023-05-13T20:12:16.449Z,15.40
2023-05-13T20:14:52.076Z,15.40
2023-05-13T20:17:21.352Z,15.40
2023-05-13T20:19:50.029Z,15.40
2023-05-13T20:22:18.683Z,15.40
2023-05-13T20:24:47.966Z,15.40
2023-05-13T20:27:16.464Z,15.40
2023-05-13T20:29:46.836Z,15.40
2023-05-13T20:32:16.793Z,15.30
2023-05-13T20:34:44.132Z,15.30
2023-05-13T20:37:11.662Z,15.20
2023-05-13T20:39:38.928Z,15.10
2023-05-13T20:42:06.688Z,15.10
2023-05-13T20:44:34.326Z,15.00
2023-05-13T20:47:01.693Z,15.00
2023-05-13T20:49:28.979Z,15.00
2023-05-13T20:52:03.419Z,15.00
2023-05-13T20:54:31.170Z,15.00
2023-05-13T20:57:00.494Z,14.90
2023-05-13T20:59:28.198Z,14.90
2023-05-13T21:01:55.857Z,15.00
2023-05-13T21:04:25.683Z,15.00
2023-05-13T21:06:53.112Z,15.00
2023-05-13T21:09:20.398Z,15.00
2023-05-13T21:11:47.758Z,15.10
2023-05-13T21:14:15.063Z,15.10
2023-05-13T21:16:42.673Z,15.10
2023-05-13T21:19:19.692Z,15.10
2023-05-13T21:21:46.996Z,15.10
2023-05-13T21:24:17.316Z,15.10
2023-05-13T21:26:45.837Z,15.10
2023-05-13T21:29:13.177Z,15.10
2023-05-13T21:31:40.566Z,15.10
2023-05-13T21:34:08.024Z,15.10
2023-05-13T21:36:38.828Z,15.00
2023-05-13T21:39:07.237Z,15.10
2023-05-13T21:41:34.925Z,15.00
2023-05-13T21:44:02.384Z,15.00
2023-05-13T21:46:29.922Z,15.00
2023-05-13T21:48:58.896Z,14.90
2023-05-13T21:51:26.333Z,14.90
2023-05-13T21:53:53.740Z,14.90
2023-05-13T21:56:21.780Z,14.90
2023-05-13T21:58:49.697Z,14.90
2023-05-13T22:01:18.258Z,14.90
2023-05-13T22:03:45.569Z,14.90
2023-05-13T22:06:12.859Z,15.00
2023-05-13T22:08:40.140Z,15.00
2023-05-13T22:11:07.473Z,15.00
2023-05-13T22:13:35.025Z,15.10
2023-05-13T22:16:02.712Z,15.10
2023-05-13T22:18:30.183Z,15.10
2023-05-13T22:20:59.479Z,15.10
2023-05-13T22:23:27.413Z,15.20
2023-05-13T22:25:55.047Z,15.20
2023-05-13T22:28:22.401Z,15.20
2023-05-13T22:30:51.551Z,15.20
2023-05-13T22:33:19.152Z,15.20
2023-05-13T22:35:47.341Z,15.20
2023-05-13T22:38:14.623Z,15.10
2023-05-13T22:40:42.110Z,15.10
2023-05-13T22:43:09.414Z,15.10
2023-05-13T22:45:37.575Z,15.00
2023-05-13T22:48:05.079Z,15.00
2023-05-13T22:50:32.565Z,15.00
2023-05-13T22:52:59.869Z,15.00
2023-05-13T22:55:27.149Z,15.00
2023-05-13T22:57:55.209Z,14.90
2023-05-13T23:00:22.885Z,14.90
2023-05-13T23:02:50.468Z,14.90
2023-05-13T23:05:17.812Z,14.90
2023-05-13T23:07:45.085Z,15.00
2023-05-13T23:10:12.321Z,15.00
2023-05-13T23:12:39.814Z,15.00
2023-05-13T23:15:07.731Z,14.90
2023-05-13T23:17:35.055Z,14.80
2023-05-13T23:20:02.479Z,14.70
2023-05-13T23:22:29.799Z,14.60
2023-05-13T23:24:57.073Z,14.60
2023-05-13T23:27:24.734Z,14.60
2023-05-13T23:29:52.131Z,14.70
2023-05-13T23:32:19.607Z,14.70
2023-05-13T23:34:46.867Z,14.70
2023-05-13T23:37:15.762Z,14.70
2023-05-13T23:39:43.203Z,14.70
2023-05-13T23:42:10.696Z,14.70
2023-05-13T23:44:39.059Z,14.70
2023-05-13T23:47:06.548Z,14.70
2023-05-13T23:49:34.283Z,14.60
2023-05-13T23:52:01.613Z,14.60
2023-05-13T23:54:28.861Z,14.60
2023-05-13T23:56:56.162Z,14.60
2023-05-13T23:59:23.466Z,14.60
